Time;durP1;ratioP1;P1;durP2;ratioP2;P2;SDS_P1;SDS_P2;PMS_P1;PMS_P2;Temp;Humidity;BMP_temperature;BMP_pressure;BME280_temperature;BME280_humidity;BME280_pressure;Samples;Min_cycle;Max_cycle;Signal;HPM_P1;HPM_P2
2022/05/29 00:00:20;;;;;;;2.92;1.33;;;21.80;51.00;;;;;;4908025;28;92637;-63
2022/05/29 00:02:48;;;;;;;2.20;1.20;;;21.80;50.90;;;;;;4907995;28;91610;-61
2022/05/29 00:05:13;;;;;;;1.65;0.98;;;21.80;50.90;;;;;;4906990;28;94460;-62
2022/05/29 00:07:40;;;;;;;2.10;0.95;;;21.80;51.00;;;;;;4906893;28;93180;-62
2022/05/29 00:10:09;;;;;;;2.03;0.82;;;21.80;50.90;;;;;;4906934;28;93698;-62
2022/05/29 00:12:34;;;;;;;2.63;1.10;;;21.80;51.00;;;;;;4907463;28;92368;-62
2022/05/29 00:15:00;;;;;;;2.35;1.10;;;21.80;50.90;;;;;;4908463;28;93207;-63
2022/05/29 00:17:26;;;;;;;1.77;1.05;;;21.80;51.00;;;;;;4908797;28;93249;-63
2022/05/29 00:19:52;;;;;;;2.58;0.68;;;21.80;50.80;;;;;;4908987;28;92577;-63
2022/05/29 00:22:20;;;;;;;2.30;1.30;;;21.80;50.90;;;;;;4908108;28;93019;-64
2022/05/29 00:24:48;;;;;;;2.30;0.90;;;21.80;50.90;;;;;;4908214;28;93299;-63
2022/05/29 00:27:16;;;;;;;1.85;0.95;;;21.70;51.00;;;;;;4907408;28;93270;-63
2022/05/29 00:29:42;;;;;;;1.48;0.90;;;21.80;51.00;;;;;;4907933;28;92046;-61
2022/05/29 00:32:09;;;;;;;3.08;1.10;;;21.80;51.10;;;;;;4907456;28;92499;-63
2022/05/29 00:34:34;;;;;;;3.42;1.10;;;21.80;50.90;;;;;;4907732;28;93907;-63
2022/05/29 00:37:03;;;;;;;2.50;1.15;;;21.70;51.00;;;;;;4908226;28;92946;-63
2022/05/29 00:39:29;;;;;;;2.38;1.08;;;21.70;51.10;;;;;;4908180;28;92906;-63
2022/05/29 00:41:55;;;;;;;1.60;1.10;;;21.80;51.20;;;;;;4908387;28;92864;-63
2022/05/29 00:44:27;;;;;;;3.08;1.13;;;21.80;51.20;;;;;;4908004;28;93873;-62
2022/05/29 00:46:54;;;;;;;2.10;0.90;;;21.70;51.30;;;;;;4906931;28;95812;-61
2022/05/29 00:49:32;;;;;;;1.20;1.00;;;21.70;51.30;;;;;;4908856;28;92989;-62
2022/05/29 00:51:58;;;;;;;1.42;0.75;;;21.70;51.10;;;;;;4908770;28;92201;-63
2022/05/29 00:54:24;;;;;;;2.13;1.00;;;21.70;51.10;;;;;;4908243;28;93167;-62
2022/05/29 00:56:51;;;;;;;2.63;0.98;;;21.70;51.10;;;;;;4907297;28;92749;-63
2022/05/29 00:59:24;;;;;;;1.92;1.05;;;21.70;51.00;;;;;;4907573;28;93936;-61
2022/05/29 01:01:51;;;;;;;2.63;1.25;;;21.70;51.10;;;;;;4908138;28;92437;-64
2022/05/29 01:04:17;;;;;;;2.78;1.13;;;21.70;51.10;;;;;;4907743;28;92982;-62
2022/05/29 01:06:43;;;;;;;1.73;1.00;;;21.70;51.10;;;;;;4906264;28;95990;-64
2022/05/29 01:09:10;;;;;;;3.47;0.95;;;21.70;51.10;;;;;;4909476;28;92933;-63
2022/05/29 01:11:41;;;;;;;1.33;0.80;;;21.70;51.20;;;;;;4911180;28;92806;-62
2022/05/29 01:14:16;;;;;;;3.08;1.17;;;21.70;51.20;;;;;;4910757;28;93141;-63
2022/05/29 01:16:59;;;;;;;1.90;1.00;;;21.70;51.10;;;;;;4911866;28;92379;-63
2022/05/29 01:19:42;;;;;;;1.90;0.90;;;21.70;51.10;;;;;;4911234;28;92383;-63
2022/05/29 01:22:14;;;;;;;1.75;1.08;;;21.70;51.20;;;;;;4909081;28;92308;-63
2022/05/29 01:24:58;;;;;;;2.03;0.85;;;21.70;51.20;;;;;;4910105;28;93462;-62
2022/05/29 01:27:26;;;;;;;1.40;0.90;;;21.70;51.20;;;;;;4909934;28;93213;-62
2022/05/29 01:30:05;;;;;;;3.35;0.98;;;21.70;51.30;;;;;;4910476;28;92616;-64
2022/05/29 01:33:08;;;;;;;2.17;0.90;;;21.70;51.20;;;;;;4909935;28;92321;-64
2022/05/29 01:35:45;;;;;;;3.25;0.90;;;21.70;51.30;;;;;;4910510;28;94438;-63
2022/05/29 01:38:29;;;;;;;1.70;0.90;;;21.70;51.10;;;;;;4910741;28;92814;-63
2022/05/29 01:41:07;;;;;;;2.13;0.82;;;21.60;51.10;;;;;;4908824;28;92950;-62
2022/05/29 01:43:50;;;;;;;1.42;0.70;;;21.60;51.20;;;;;;4910989;28;91732;-63
2022/05/29 01:46:33;;;;;;;1.75;0.93;;;21.70;51.20;;;;;;4909939;28;93285;-63
2022/05/29 01:49:17;;;;;;;3.35;1.20;;;21.70;51.20;;;;;;4908486;28;95874;-63
2022/05/29 01:51:54;;;;;;;2.92;0.80;;;21.60;51.10;;;;;;4910594;28;92917;-62
2022/05/29 01:54:34;;;;;;;2.15;1.00;;;21.60;51.40;;;;;;4910456;28;92467;-62
2022/05/29 01:57:08;;;;;;;2.42;1.15;;;21.60;51.10;;;;;;4910359;28;92558;-62
2022/05/29 01:59:52;;;;;;;2.53;0.98;;;21.60;51.30;;;;;;4910280;28;93041;-62
2022/05/29 02:02:49;;;;;;;2.42;0.98;;;21.60;51.40;;;;;;4910551;28;93360;-62
2022/05/29 02:05:23;;;;;;;1.27;1.00;;;21.60;51.20;;;;;;4895289;28;93222;-64
2022/05/29 02:07:53;;;;;;;1.95;0.90;;;21.60;51.10;;;;;;4910240;28;93042;-63
2022/05/29 02:10:31;;;;;;;3.08;1.17;;;21.60;51.10;;;;;;4910200;28;92935;-63
2022/05/29 02:13:17;;;;;;;3.38;1.40;;;21.60;51.20;;;;;;4910316;28;92289;-63
2022/05/29 02:15:45;;;;;;;1.40;0.80;;;21.50;51.10;;;;;;4910231;28;92377;-63
2022/05/29 02:18:19;;;;;;;1.13;0.73;;;21.60;51.20;;;;;;4908664;28;93589;-64
2022/05/29 02:20:49;;;;;;;2.42;0.90;;;21.60;51.30;;;;;;4909491;28;93905;-62
2022/05/29 02:23:35;;;;;;;1.63;0.93;;;21.60;51.20;;;;;;4910241;28;92754;-63
2022/05/29 02:26:03;;;;;;;2.80;1.08;;;21.50;51.20;;;;;;4909794;28;92730;-63
2022/05/29 02:28:36;;;;;;;2.90;0.90;;;21.60;51.30;;;;;;4909579;28;93293;-62
2022/05/29 02:31:08;;;;;;;2.28;0.90;;;21.50;51.00;;;;;;4909757;28;93130;-63
2022/05/29 02:33:57;;;;;;;1.73;1.10;;;21.60;51.50;;;;;;4909480;28;92648;-63
2022/05/29 02:36:43;;;;;;;1.90;0.70;;;21.50;51.10;;;;;;4906222;28;91996;-62
2022/05/29 02:39:32;;;;;;;2.20;0.88;;;21.50;51.20;;;;;;4910302;28;93305;-62
2022/05/29 02:42:01;;;;;;;1.60;0.90;;;21.50;51.10;;;;;;4909568;28;93561;-63
2022/05/29 02:44:56;;;;;;;2.70;1.20;;;21.50;51.20;;;;;;4909631;28;93100;-62
2022/05/29 02:47:27;;;;;;;1.38;0.70;;;21.50;51.30;;;;;;4906060;28;94052;-63
2022/05/29 02:50:17;;;;;;;2.03;0.93;;;21.50;51.20;;;;;;4909652;28;93150;-64
2022/05/29 02:52:43;;;;;;;2.00;0.88;;;21.50;51.30;;;;;;4910269;28;92291;-63
2022/05/29 02:55:09;;;;;;;1.60;0.70;;;21.50;51.30;;;;;;4909910;28;92246;-63
2022/05/29 02:57:34;;;;;;;2.28;0.70;;;21.50;51.20;;;;;;4908913;28;92757;-64
2022/05/29 03:00:11;;;;;;;1.98;1.00;;;21.50;51.10;;;;;;4908697;28;93203;-63
2022/05/29 03:02:52;;;;;;;3.42;0.90;;;21.50;51.30;;;;;;4909590;28;92498;-64
2022/05/29 03:05:41;;;;;;;2.05;1.10;;;21.50;51.20;;;;;;4909455;28;92712;-63
2022/05/29 03:08:37;;;;;;;1.20;0.80;;;21.50;51.20;;;;;;4908819;28;92880;-64
2022/05/29 03:11:03;;;;;;;1.58;1.00;;;21.50;51.20;;;;;;4908054;28;94084;-63
2022/05/29 03:13:51;;;;;;;1.38;0.90;;;21.50;51.30;;;;;;4909233;28;92950;-63
2022/05/29 03:16:41;;;;;;;1.30;0.90;;;21.50;52.00;;;;;;4909510;28;92480;-63
2022/05/29 03:19:21;;;;;;;0.82;0.60;;;21.50;51.30;;;;;;4909589;28;93204;-64
2022/05/29 03:21:47;;;;;;;1.25;0.65;;;21.50;51.10;;;;;;4908794;28;93164;-64
2022/05/29 03:24:13;;;;;;;2.33;0.90;;;21.50;51.30;;;;;;4909100;28;92737;-62
2022/05/29 03:26:53;;;;;;;2.83;0.95;;;21.50;51.20;;;;;;4909886;28;91995;-64
2022/05/29 03:29:23;;;;;;;1.92;1.00;;;21.50;51.20;;;;;;4909100;28;91216;-62
2022/05/29 03:31:50;;;;;;;1.50;0.70;;;21.50;51.30;;;;;;4908680;28;93174;-63
2022/05/29 03:34:15;;;;;;;1.98;0.80;;;21.40;51.30;;;;;;4907267;28;93810;-62
2022/05/29 03:36:50;;;;;;;2.05;1.00;;;21.40;51.40;;;;;;4906930;28;94013;-63
2022/05/29 03:39:17;;;;;;;1.65;0.88;;;21.40;51.20;;;;;;4908957;28;93099;-64
2022/05/29 03:41:48;;;;;;;1.75;0.90;;;21.40;51.20;;;;;;4909275;28;93374;-63
2022/05/29 03:44:16;;;;;;;1.85;0.93;;;21.40;51.30;;;;;;4909067;28;93390;-62
2022/05/29 03:46:44;;;;;;;1.45;0.75;;;21.40;51.30;;;;;;4908960;28;93138;-64
2022/05/29 03:49:11;;;;;;;1.00;0.90;;;21.40;51.30;;;;;;4907943;28;92794;-64
2022/05/29 03:51:38;;;;;;;1.33;0.80;;;21.40;51.40;;;;;;4908639;28;93900;-63
2022/05/29 03:54:04;;;;;;;0.95;0.60;;;21.40;51.30;;;;;;4909279;28;92939;-62
2022/05/29 03:56:30;;;;;;;2.03;0.70;;;21.40;51.40;;;;;;4908734;28;92915;-63
2022/05/29 03:58:56;;;;;;;1.73;1.02;;;21.40;51.40;;;;;;4908957;28;93036;-63
2022/05/29 04:01:25;;;;;;;2.28;1.20;;;21.40;51.30;;;;;;4906255;28;97490;-64
2022/05/29 04:03:53;;;;;;;1.25;1.00;;;21.40;51.20;;;;;;4908718;28;93937;-64
2022/05/29 04:06:20;;;;;;;0.88;0.65;;;21.40;51.10;;;;;;4908932;28;93066;-63
2022/05/29 04:14:15;;;;;;;1.20;0.70;;;21.40;51.40;;;;;;4909103;28;92328;-63
2022/05/29 04:16:41;;;;;;;1.10;0.73;;;21.40;51.30;;;;;;4909328;28;91898;-64
2022/05/29 04:19:06;;;;;;;0.85;0.70;;;21.40;51.40;;;;;;4906948;28;92357;-63
2022/05/29 04:21:32;;;;;;;1.55;0.80;;;21.40;51.50;;;;;;4908902;28;94140;-63
2022/05/29 04:23:58;;;;;;;1.48;0.80;;;21.40;51.50;;;;;;4908336;28;92304;-64
2022/05/29 04:26:24;;;;;;;1.17;0.80;;;21.40;51.40;;;;;;4908544;28;93216;-63
2022/05/29 04:28:50;;;;;;;1.67;0.70;;;21.40;51.40;;;;;;4908932;28;92297;-64
2022/05/29 04:31:16;;;;;;;2.28;0.77;;;21.40;51.30;;;;;;4908865;28;92874;-63
2022/05/29 04:33:42;;;;;;;1.85;0.90;;;21.40;51.40;;;;;;4905943;28;95817;-63
2022/05/29 04:36:07;;;;;;;2.17;0.75;;;21.40;51.40;;;;;;4907045;28;92292;-63
2022/05/29 04:38:33;;;;;;;1.58;0.85;;;21.40;51.40;;;;;;4907367;28;93067;-62
2022/05/29 04:41:06;;;;;;;1.40;0.70;;;21.40;51.40;;;;;;4907079;28;93145;-64
2022/05/29 04:43:32;;;;;;;2.50;0.95;;;21.40;51.50;;;;;;4909120;28;92702;-63
2022/05/29 04:45:57;;;;;;;1.75;0.70;;;21.40;51.40;;;;;;4911026;28;92067;-63
2022/05/29 04:48:23;;;;;;;1.33;0.68;;;21.40;51.40;;;;;;4911960;28;92716;-62
2022/05/29 04:50:56;;;;;;;0.80;0.60;;;21.40;51.50;;;;;;4911508;28;94098;-64
2022/05/29 04:53:22;;;;;;;1.40;0.75;;;21.40;51.50;;;;;;4911236;28;93032;-62
2022/05/29 04:55:51;;;;;;;0.93;0.70;;;21.40;51.50;;;;;;4911642;28;92572;-64
2022/05/29 04:58:16;;;;;;;1.58;0.82;;;21.40;51.40;;;;;;4908804;28;92640;-64
2022/05/29 05:00:42;;;;;;;1.23;0.73;;;21.40;51.50;;;;;;4913812;28;94204;-62
2022/05/29 05:03:07;;;;;;;1.40;0.85;;;21.40;51.70;;;;;;4911496;28;92504;-64
2022/05/29 05:05:33;;;;;;;1.08;0.70;;;21.40;51.60;;;;;;4910578;28;92756;-63
2022/05/29 05:07:59;;;;;;;1.40;0.88;;;21.40;51.50;;;;;;4911071;28;92442;-64
2022/05/29 05:10:24;;;;;;;1.10;0.60;;;21.40;51.50;;;;;;4908546;28;95508;-64
2022/05/29 05:12:51;;;;;;;0.90;0.60;;;21.30;51.50;;;;;;4909893;28;92687;-62
2022/05/29 05:15:17;;;;;;;1.33;0.70;;;21.40;51.50;;;;;;4910182;28;94027;-63
2022/05/29 05:17:43;;;;;;;0.75;0.57;;;21.40;51.50;;;;;;4910341;28;92515;-63
2022/05/29 05:20:10;;;;;;;0.65;0.50;;;21.40;51.50;;;;;;4910118;28;93785;-63
2022/05/29 05:22:36;;;;;;;1.13;0.80;;;21.40;51.60;;;;;;4910604;28;93210;-63
2022/05/29 05:25:02;;;;;;;1.52;1.02;;;21.40;51.50;;;;;;4896626;28;92060;-63
2022/05/29 05:27:28;;;;;;;1.25;0.70;;;21.40;51.50;;;;;;4910500;28;92469;-63
2022/05/29 05:29:53;;;;;;;2.13;0.80;;;21.30;51.30;;;;;;4910802;28;93169;-63
2022/05/29 05:32:19;;;;;;;1.23;0.80;;;21.40;51.30;;;;;;4911811;28;93265;-63
2022/05/29 05:34:45;;;;;;;1.58;0.68;;;21.40;51.30;;;;;;4911348;28;92547;-63
2022/05/29 05:37:12;;;;;;;1.70;0.80;;;21.40;51.30;;;;;;4910676;28;92820;-62
2022/05/29 05:39:37;;;;;;;1.70;0.88;;;21.40;51.50;;;;;;4909745;28;94115;-63
2022/05/29 05:42:05;;;;;;;1.60;0.80;;;21.40;51.50;;;;;;4910477;28;94062;-63
2022/05/29 05:44:31;;;;;;;0.98;0.70;;;21.50;51.50;;;;;;4910570;28;92962;-64
2022/05/29 05:46:57;;;;;;;3.08;0.80;;;21.50;51.60;;;;;;4910785;28;92971;-63
2022/05/29 05:49:23;;;;;;;1.45;0.93;;;21.50;51.50;;;;;;4909747;28;93122;-63
2022/05/29 05:51:54;;;;;;;2.53;0.95;;;21.50;51.50;;;;;;4909637;28;94119;-62
2022/05/29 05:54:20;;;;;;;1.45;0.80;;;21.50;51.70;;;;;;4909742;28;92656;-63
2022/05/29 05:56:50;;;;;;;3.25;0.65;;;21.40;51.50;;;;;;4910382;28;92049;-64
2022/05/29 05:59:16;;;;;;;2.95;0.90;;;21.40;51.50;;;;;;4910821;28;93236;-62
2022/05/29 06:01:42;;;;;;;0.77;0.50;;;21.50;51.80;;;;;;4910162;28;93698;-63
2022/05/29 06:04:08;;;;;;;12.10;2.58;;;21.50;51.70;;;;;;4910494;28;94160;-62
2022/05/29 06:06:34;;;;;;;18.90;3.67;;;21.40;52.10;;;;;;4910521;28;92594;-63
2022/05/29 06:09:00;;;;;;;14.30;3.95;;;21.40;52.10;;;;;;4909992;28;93142;-63
2022/05/29 06:11:27;;;;;;;9.38;3.33;;;21.40;51.80;;;;;;4908719;28;94706;-63
2022/05/29 06:13:53;;;;;;;12.07;2.67;;;21.40;52.20;;;;;;4910550;28;92572;-64
2022/05/29 06:16:19;;;;;;;15.48;3.25;;;21.40;52.20;;;;;;4909821;28;92737;-62
2022/05/29 06:18:44;;;;;;;13.30;3.42;;;21.40;52.40;;;;;;4908874;28;93134;-62
2022/05/29 06:21:10;;;;;;;12.63;2.50;;;21.40;52.40;;;;;;4908812;28;92737;-63
2022/05/29 06:23:38;;;;;;;18.85;3.85;;;21.40;52.50;;;;;;4909205;28;93045;-63
2022/05/29 06:26:06;;;;;;;9.82;2.20;;;21.40;52.40;;;;;;4908614;28;92861;-64
2022/05/29 06:28:32;;;;;;;8.90;2.10;;;21.50;51.20;;;;;;4909188;28;95295;-63
2022/05/29 06:30:58;;;;;;;15.52;2.65;;;21.50;51.30;;;;;;4909855;28;93563;-63
2022/05/29 06:33:26;;;;;;;9.60;2.88;;;21.40;51.60;;;;;;4910255;28;93052;-63
2022/05/29 06:35:52;;;;;;;9.70;2.90;;;21.40;51.50;;;;;;4910121;28;92508;-63
2022/05/29 06:38:18;;;;;;;9.80;2.30;;;21.40;51.60;;;;;;4908665;28;93182;-63
2022/05/29 06:40:49;;;;;;;12.10;2.40;;;21.40;51.50;;;;;;4907953;28;96353;-63
2022/05/29 06:43:16;;;;;;;12.30;2.42;;;21.40;51.60;;;;;;4910239;28;92364;-63
2022/05/29 06:45:41;;;;;;;8.43;2.42;;;21.40;51.70;;;;;;4910393;28;91893;-63
2022/05/29 06:48:27;;;;;;;13.65;2.83;;;21.40;51.60;;;;;;4909636;28;93141;-63
2022/05/29 06:50:53;;;;;;;9.10;2.45;;;21.40;51.50;;;;;;4909509;28;92732;-64
2022/05/29 06:53:20;;;;;;;9.07;2.72;;;21.40;51.80;;;;;;4908884;28;94337;-63
2022/05/29 06:55:55;;;;;;;9.55;2.30;;;21.40;51.70;;;;;;4908947;28;92516;-62
2022/05/29 06:58:22;;;;;;;13.60;2.95;;;21.40;51.80;;;;;;4909304;28;92950;-63
2022/05/29 07:09:04;;;;;;;7.97;2.47;;;21.40;51.40;;;;;;4907881;28;92999;-63
2022/05/29 07:11:35;;;;;;;9.05;2.70;;;21.40;51.50;;;;;;4908921;28;92274;-64
2022/05/29 07:14:04;;;;;;;13.20;2.92;;;21.40;51.60;;;;;;4909406;28;93355;-64
2022/05/29 07:16:30;;;;;;;11.13;2.47;;;21.40;52.20;;;;;;4909009;28;93124;-63
2022/05/29 07:18:56;;;;;;;11.57;2.40;;;21.40;52.60;;;;;;4909030;28;94134;-63
2022/05/29 07:21:22;;;;;;;14.88;2.33;;;21.40;52.70;;;;;;4909480;28;94141;-63
2022/05/29 07:23:48;;;;;;;36.65;5.90;;;21.40;52.80;;;;;;4909770;28;93113;-63
2022/05/29 07:26:15;;;;;;;14.90;2.35;;;21.40;52.70;;;;;;4907912;28;92390;-63
2022/05/29 07:28:40;;;;;;;10.95;2.40;;;21.40;52.50;;;;;;4908994;28;93956;-62
2022/05/29 07:31:06;;;;;;;21.27;3.60;;;21.40;52.60;;;;;;4908676;28;92345;-62
2022/05/29 07:33:32;;;;;;;18.13;4.40;;;21.40;52.80;;;;;;4908763;28;92763;-62
2022/05/29 07:35:59;;;;;;;31.90;6.45;;;21.40;52.70;;;;;;4908199;28;92247;-64
2022/05/29 07:38:26;;;;;;;37.28;7.55;;;21.40;52.50;;;;;;4908108;28;93171;-63
2022/05/29 07:40:54;;;;;;;31.45;5.78;;;21.40;52.60;;;;;;4909232;28;93058;-63
2022/05/29 07:43:22;;;;;;;34.10;8.47;;;21.40;52.50;;;;;;4907982;28;93448;-63
2022/05/29 07:45:49;;;;;;;35.88;8.23;;;21.40;51.90;;;;;;4908053;28;92754;-64
2022/05/29 07:48:20;;;;;;;34.90;7.88;;;21.40;51.20;;;;;;4908063;28;93936;-63
2022/05/29 07:50:46;;;;;;;33.22;7.45;;;21.40;52.40;;;;;;4908300;28;92363;-63
2022/05/29 07:53:12;;;;;;;36.42;8.07;;;21.40;52.20;;;;;;4908155;28;92888;-64
2022/05/29 07:55:38;;;;;;;34.80;8.07;;;21.40;52.40;;;;;;4907381;28;92258;-63
2022/05/29 07:58:06;;;;;;;36.95;7.95;;;21.40;52.50;;;;;;4907492;28;92848;-62
2022/05/29 08:00:32;;;;;;;37.03;8.48;;;21.40;52.50;;;;;;4902583;28;93917;-63
2022/05/29 08:02:58;;;;;;;33.65;7.82;;;21.40;52.60;;;;;;4907835;28;92890;-63
2022/05/29 08:05:24;;;;;;;33.60;8.10;;;21.40;52.80;;;;;;4908532;28;92549;-63
2022/05/29 08:07:51;;;;;;;33.05;8.35;;;21.40;52.90;;;;;;4906893;28;93627;-63
2022/05/29 08:10:21;;;;;;;34.90;8.38;;;21.40;53.00;;;;;;4906336;28;93338;-62
2022/05/29 08:12:46;;;;;;;31.88;7.93;;;21.40;52.90;;;;;;4906444;28;92580;-63
2022/05/29 08:15:13;;;;;;;39.60;8.02;;;21.40;52.90;;;;;;4906631;28;92976;-62
2022/05/29 08:17:40;;;;;;;33.13;8.07;;;21.40;52.90;;;;;;4904717;28;96302;-63
2022/05/29 08:20:07;;;;;;;30.55;6.80;;;21.40;53.00;;;;;;4882045;28;93102;-63
2022/05/29 08:22:33;;;;;;;27.20;7.80;;;21.40;53.00;;;;;;4908308;28;92732;-62
2022/05/29 08:30:41;;;;;;;32.88;7.75;;;21.40;53.20;;;;;;4907183;28;92140;-63
2022/05/29 08:33:09;;;;;;;24.15;6.95;;;21.40;53.40;;;;;;4906818;28;93307;-64
2022/05/29 08:35:35;;;;;;;36.17;7.22;;;21.50;54.10;;;;;;4905101;28;93156;-65
2022/05/29 08:38:03;;;;;;;28.88;6.95;;;21.50;54.20;;;;;;4905959;28;94797;-73
2022/05/29 08:40:30;;;;;;;28.38;7.35;;;21.50;53.80;;;;;;4902953;28;93357;-64
2022/05/29 08:42:56;;;;;;;26.70;7.10;;;21.50;54.40;;;;;;4907560;28;92603;-65
2022/05/29 08:45:22;;;;;;;27.77;7.88;;;21.50;54.20;;;;;;4905235;28;93063;-64
2022/05/29 08:47:50;;;;;;;30.60;7.60;;;21.50;54.10;;;;;;4906823;28;93209;-62
2022/05/29 08:50:23;;;;;;;20.92;6.13;;;21.50;54.10;;;;;;4906610;28;92851;-64
2022/05/29 08:52:55;;;;;;;24.67;6.38;;;21.50;54.20;;;;;;4907331;28;92690;-64
2022/05/29 08:55:29;;;;;;;23.15;6.75;;;21.40;54.30;;;;;;4905109;28;92508;-64
2022/05/29 08:58:00;;;;;;;21.75;6.25;;;21.40;54.30;;;;;;4904786;28;95173;-63
2022/05/29 09:00:48;;;;;;;21.05;6.68;;;21.40;54.50;;;;;;4906445;28;93392;-63
2022/05/29 09:03:19;;;;;;;19.63;6.10;;;21.40;54.30;;;;;;4906993;28;92540;-62
2022/05/29 09:05:51;;;;;;;23.30;6.30;;;21.40;54.30;;;;;;4906195;28;92809;-63
2022/05/29 09:08:24;;;;;;;17.42;5.78;;;21.40;54.30;;;;;;4905096;28;93144;-64
2022/05/29 09:11:04;;;;;;;17.33;5.68;;;21.40;54.30;;;;;;4905843;28;92939;-63
2022/05/29 09:13:39;;;;;;;21.63;6.47;;;21.40;54.10;;;;;;4907007;28;94189;-64
2022/05/29 09:16:17;;;;;;;13.35;4.47;;;21.40;54.00;;;;;;4905906;28;91626;-64
2022/05/29 09:19:08;;;;;;;15.13;4.03;;;21.30;56.10;;;;;;4906102;28;92663;-62
2022/05/29 09:21:55;;;;;;;11.27;2.92;;;21.30;54.80;;;;;;4902684;28;92959;-64
2022/05/29 09:24:52;;;;;;;12.30;3.60;;;21.30;56.50;;;;;;4906791;28;94152;-62
2022/05/29 09:27:19;;;;;;;9.45;2.78;;;21.20;57.80;;;;;;4907630;28;92927;-63
2022/05/29 09:29:45;;;;;;;11.32;3.08;;;21.20;55.30;;;;;;4907386;28;93115;-64
2022/05/29 09:32:32;;;;;;;10.48;2.90;;;21.20;54.60;;;;;;4908309;28;95867;-63
2022/05/29 09:35:43;;;;;;;8.23;2.75;;;21.20;52.50;;;;;;4908703;28;93229;-62
2022/05/29 09:38:48;;;;;;;7.60;2.60;;;21.20;52.10;;;;;;4910281;28;92568;-64
2022/05/29 09:41:24;;;;;;;8.82;2.50;;;21.20;51.90;;;;;;4905060;28;93753;-64
2022/05/29 09:44:05;;;;;;;8.13;2.53;;;21.30;50.90;;;;;;4910243;28;93641;-63
2022/05/29 09:46:39;;;;;;;8.73;2.58;;;21.20;50.50;;;;;;4910206;28;92699;-63
2022/05/29 09:50:10;;;;;;;10.15;2.50;;;21.30;51.20;;;;;;4909258;28;92671;-63
2022/05/29 09:52:23;;;;;;;22.95;2.80;;;21.30;52.30;;;;;;4912846;28;93533;-63
2022/05/29 09:55:06;;;;;;;8.98;2.60;;;21.30;52.60;;;;;;4910404;28;92837;-63
2022/05/29 09:57:42;;;;;;;7.20;2.47;;;21.30;52.20;;;;;;4910487;28;92951;-63
2022/05/29 10:00:14;;;;;;;6.93;2.05;;;21.40;52.70;;;;;;4910987;28;92488;-63
2022/05/29 10:02:45;;;;;;;9.13;3.13;;;21.40;52.80;;;;;;4910620;28;93170;-63
2022/05/29 10:05:35;;;;;;;8.93;2.55;;;21.40;52.60;;;;;;4910169;28;92991;-63
2022/05/29 10:08:20;;;;;;;10.20;2.58;;;21.40;53.10;;;;;;4910572;28;92481;-63
2022/05/29 10:10:45;;;;;;;10.38;2.75;;;21.40;54.00;;;;;;4910970;28;91755;-63
2022/05/29 10:13:38;;;;;;;6.10;2.45;;;21.40;54.30;;;;;;4908470;28;94038;-63
2022/05/29 10:16:05;;;;;;;7.43;2.38;;;21.40;55.00;;;;;;4909895;28;92910;-64
2022/05/29 10:18:32;;;;;;;4.90;1.98;;;21.40;55.30;;;;;;4908999;28;93805;-63
2022/05/29 10:21:15;;;;;;;8.68;2.53;;;21.40;55.40;;;;;;4908660;28;93708;-63
2022/05/29 10:23:49;;;;;;;6.80;2.05;;;21.40;55.50;;;;;;4909443;28;92649;-63
2022/05/29 10:26:48;;;;;;;7.00;2.38;;;21.40;55.70;;;;;;4908986;28;94226;-63
2022/05/29 10:29:23;;;;;;;7.97;2.38;;;21.40;55.60;;;;;;4905332;28;92799;-63
2022/05/29 10:31:50;;;;;;;9.05;3.28;;;21.40;55.70;;;;;;4909042;28;92818;-62
2022/05/29 10:34:29;;;;;;;7.35;2.47;;;21.40;53.90;;;;;;4908969;28;93652;-64
2022/05/29 10:36:56;;;;;;;9.52;2.97;;;21.40;53.90;;;;;;4909414;28;92795;-62
2022/05/29 10:39:29;;;;;;;7.93;2.78;;;21.40;54.40;;;;;;4910542;28;93014;-64
2022/05/29 10:41:57;;;;;;;9.63;2.40;;;21.40;55.40;;;;;;4908067;28;94027;-63
2022/05/29 10:44:51;;;;;;;9.88;2.50;;;21.40;55.10;;;;;;4909286;28;94276;-63
2022/05/29 10:47:25;;;;;;;5.28;2.28;;;21.40;55.00;;;;;;4909125;28;94134;-63
2022/05/29 10:50:11;;;;;;;9.85;2.88;;;21.40;54.90;;;;;;4910575;28;92365;-63
2022/05/29 10:53:01;;;;;;;5.95;2.30;;;21.40;55.00;;;;;;4909932;28;92632;-63
2022/05/29 10:56:02;;;;;;;8.77;2.20;;;21.50;55.20;;;;;;4908998;28;93206;-62
2022/05/29 10:58:53;;;;;;;10.70;2.30;;;21.40;55.30;;;;;;4907632;28;95963;-63
2022/05/29 11:04:15;;;;;;;5.78;2.00;;;21.50;55.60;;;;;;4909122;28;91567;-63
2022/05/29 11:06:49;;;;;;;6.40;2.23;;;21.40;55.70;;;;;;4909103;28;93294;-62
2022/05/29 11:09:37;;;;;;;8.20;2.53;;;21.50;55.90;;;;;;4908380;28;93216;-63
2022/05/29 11:12:14;;;;;;;10.63;2.38;;;21.40;55.80;;;;;;4907246;28;94100;-64
2022/05/29 11:14:59;;;;;;;9.75;2.92;;;21.50;54.50;;;;;;4910328;28;92905;-63
2022/05/29 11:17:37;;;;;;;12.02;2.72;;;21.40;55.10;;;;;;4909262;28;93239;-63
2022/05/29 11:20:35;;;;;;;9.05;3.13;;;21.40;55.60;;;;;;4909229;28;92386;-64
2022/05/29 11:23:12;;;;;;;8.73;2.50;;;21.50;55.70;;;;;;4893090;28;92033;-63
2022/05/29 11:26:04;;;;;;;7.10;2.70;;;21.50;55.30;;;;;;4908872;28;92130;-63
2022/05/29 11:28:48;;;;;;;11.07;2.85;;;21.50;55.20;;;;;;4908168;28;93425;-63
2022/05/29 11:31:19;;;;;;;7.32;2.33;;;21.50;55.10;;;;;;4908252;28;92926;-63
2022/05/29 11:34:26;;;;;;;7.10;3.03;;;21.50;55.00;;;;;;4906277;28;92144;-63
2022/05/29 11:37:22;;;;;;;12.48;2.40;;;21.50;54.80;;;;;;4891006;28;93281;-64
2022/05/29 11:39:50;;;;;;;7.05;2.40;;;21.50;54.80;;;;;;4908050;28;94133;-63
2022/05/29 11:42:17;;;;;;;7.53;3.10;;;21.50;54.60;;;;;;4908670;28;93702;-63
2022/05/29 11:45:00;;;;;;;5.60;2.45;;;21.50;54.60;;;;;;4908780;28;92690;-63
2022/05/29 11:53:43;;;;;;;7.45;2.55;;;21.50;54.30;;;;;;4907236;28;93492;-63
2022/05/29 11:56:28;;;;;;;;;;;21.40;54.60;;;;;;4908600;28;92583;-64
2022/05/29 11:59:23;;;;;;;7.82;2.60;;;21.40;54.50;;;;;;4910805;28;91939;-63
2022/05/29 12:02:10;;;;;;;5.28;2.17;;;21.50;54.30;;;;;;4908525;28;93130;-63
2022/05/29 12:04:48;;;;;;;8.98;2.50;;;21.50;54.30;;;;;;4908430;28;93502;-63
2022/05/29 12:07:33;;;;;;;9.48;2.85;;;21.50;54.20;;;;;;4908490;28;94110;-64
2022/05/29 12:10:07;;;;;;;6.65;2.53;;;21.50;54.30;;;;;;4909222;28;94356;-63
2022/05/29 12:12:53;;;;;;;10.80;3.72;;;21.50;54.40;;;;;;4908993;28;93387;-63
2022/05/29 12:15:22;;;;;;;8.57;2.40;;;21.50;54.40;;;;;;4908070;28;92898;-62
2022/05/29 12:17:56;;;;;;;13.32;2.65;;;21.50;54.30;;;;;;4908257;28;92981;-63
2022/05/29 12:20:43;;;;;;;8.93;2.75;;;21.50;54.30;;;;;;4906415;28;92618;-64
2022/05/29 12:23:27;;;;;;;6.18;2.25;;;21.50;54.30;;;;;;4908335;28;94264;-63
2022/05/29 12:26:00;;;;;;;4.35;1.90;;;21.50;54.30;;;;;;4909227;28;92765;-63
2022/05/29 12:28:29;;;;;;;8.10;2.10;;;21.40;54.00;;;;;;4908660;28;92612;-63
2022/05/29 12:30:56;;;;;;;6.77;1.93;;;21.50;54.30;;;;;;4908721;28;92933;-64
2022/05/29 12:33:24;;;;;;;5.53;2.50;;;21.50;54.30;;;;;;4908104;28;93853;-62
2022/05/29 12:36:06;;;;;;;6.20;2.30;;;21.50;54.30;;;;;;4907501;28;96638;-63
2022/05/29 12:38:44;;;;;;;6.22;2.50;;;21.50;54.30;;;;;;4908365;28;92663;-63
2022/05/29 12:41:23;;;;;;;6.45;2.72;;;21.50;54.30;;;;;;4907915;28;92297;-63
2022/05/29 12:44:13;;;;;;;7.70;2.25;;;21.40;54.30;;;;;;4906891;28;96621;-64
2022/05/29 12:46:51;;;;;;;6.43;2.38;;;21.50;54.40;;;;;;4907966;28;93529;-66
2022/05/29 12:49:49;;;;;;;10.68;2.42;;;21.40;54.20;;;;;;4907900;28;92759;-62
2022/05/29 12:52:14;;;;;;;4.15;2.05;;;21.50;54.30;;;;;;4907748;28;92060;-63
2022/05/29 12:55:04;;;;;;;7.13;2.17;;;21.50;54.10;;;;;;4906989;28;93200;-64
2022/05/29 12:57:48;;;;;;;4.07;2.13;;;21.40;54.20;;;;;;4907165;28;93332;-62
2022/05/29 13:00:55;;;;;;;5.45;2.00;;;21.40;54.20;;;;;;4906378;28;93529;-63
2022/05/29 13:03:35;;;;;;;5.72;2.28;;;21.40;54.30;;;;;;4906692;28;92755;-62
2022/05/29 13:06:32;;;;;;;5.80;2.35;;;21.50;54.30;;;;;;4909512;28;93207;-63
2022/05/29 13:09:10;;;;;;;6.80;2.40;;;21.50;54.40;;;;;;4910692;28;93117;-63
2022/05/29 13:11:41;;;;;;;9.60;2.38;;;21.50;54.40;;;;;;4911028;28;93359;-63
2022/05/29 13:14:08;;;;;;;6.28;2.13;;;21.50;54.50;;;;;;4911265;28;92584;-64
2022/05/29 13:16:45;;;;;;;10.48;2.45;;;21.60;54.70;;;;;;4911281;28;93714;-63
2022/05/29 13:19:25;;;;;;;8.45;2.05;;;21.60;54.60;;;;;;4911113;28;92429;-63
2022/05/29 13:22:01;;;;;;;10.35;2.28;;;21.60;54.90;;;;;;4909430;28;93109;-63
2022/05/29 13:25:01;;;;;;;6.68;2.38;;;21.60;54.90;;;;;;4911318;28;93024;-63
2022/05/29 13:27:29;;;;;;;6.30;2.65;;;21.60;55.00;;;;;;4908362;28;97309;-63
2022/05/29 13:29:58;;;;;;;14.43;2.20;;;21.60;55.20;;;;;;4906576;28;93921;-64
2022/05/29 13:32:27;;;;;;;8.95;2.60;;;21.60;54.70;;;;;;4907633;28;92947;-64
2022/05/29 13:35:16;;;;;;;10.98;2.22;;;21.70;55.20;;;;;;4910625;28;92412;-64
2022/05/29 13:37:44;;;;;;;9.63;2.40;;;21.70;55.50;;;;;;4910468;28;92600;-63
2022/05/29 13:40:34;;;;;;;12.48;2.60;;;21.70;55.80;;;;;;4910230;28;93329;-64
2022/05/29 13:43:15;;;;;;;11.18;2.53;;;21.70;56.00;;;;;;4904323;28;92264;-63
2022/05/29 13:45:43;;;;;;;22.58;3.95;;;21.70;56.30;;;;;;4910624;28;92221;-63